sensor_id;sensor_type;location;lat;lon;timestamp;temperature;humidity
53114;DHT22;39009;53.166;6.232;2022-07-06T00:01:19;13.50;99.90
53114;DHT22;39009;53.166;6.232;2022-07-06T00:03:45;13.50;99.90
53114;DHT22;39009;53.166;6.232;2022-07-06T00:06:10;13.50;99.90
53114;DHT22;39009;53.166;6.232;2022-07-06T00:08:36;13.50;99.90
53114;DHT22;39009;53.166;6.232;2022-07-06T00:11:02;13.60;99.90
53114;DHT22;39009;53.166;6.232;2022-07-06T00:13:27;13.60;99.90
53114;DHT22;39009;53.166;6.232;2022-07-06T00:15:53;13.60;99.90
53114;DHT22;39009;53.166;6.232;2022-07-06T00:18:19;13.60;99.90
53114;DHT22;39009;53.166;6.232;2022-07-06T00:20:44;13.70;99.90
53114;DHT22;39009;53.166;6.232;2022-07-06T00:23:10;13.70;99.90
53114;DHT22;39009;53.166;6.232;2022-07-06T00:25:36;13.60;99.90
53114;DHT22;39009;53.166;6.232;2022-07-06T00:28:04;13.60;99.90
53114;DHT22;39009;53.166;6.232;2022-07-06T00:30:33;13.60;99.90
53114;DHT22;39009;53.166;6.232;2022-07-06T00:32:58;13.60;99.90
53114;DHT22;39009;53.166;6.232;2022-07-06T00:35:24;13.50;99.90
53114;DHT22;39009;53.166;6.232;2022-07-06T00:37:50;13.50;99.90
53114;DHT22;39009;53.166;6.232;2022-07-06T00:40:15;13.50;99.90
53114;DHT22;39009;53.166;6.232;2022-07-06T00:42:41;13.40;99.90
53114;DHT22;39009;53.166;6.232;2022-07-06T00:45:10;13.40;99.90
53114;DHT22;39009;53.166;6.232;2022-07-06T00:47:36;13.50;99.90
53114;DHT22;39009;53.166;6.232;2022-07-06T00:50:03;13.50;99.90
53114;DHT22;39009;53.166;6.232;2022-07-06T00:52:48;13.50;99.90
53114;DHT22;39009;53.166;6.232;2022-07-06T00:55:14;13.50;99.90
53114;DHT22;39009;53.166;6.232;2022-07-06T00:57:40;13.50;99.90
53114;DHT22;39009;53.166;6.232;2022-07-06T01:00:07;13.40;99.90
53114;DHT22;39009;53.166;6.232;2022-07-06T01:02:34;13.40;99.90
53114;DHT22;39009;53.166;6.232;2022-07-06T01:05:00;13.40;99.90
53114;DHT22;39009;53.166;6.232;2022-07-06T01:07:26;13.40;99.90
53114;DHT22;39009;53.166;6.232;2022-07-06T01:09:53;13.30;99.90
53114;DHT22;39009;53.166;6.232;2022-07-06T01:12:18;13.30;99.90
53114;DHT22;39009;53.166;6.232;2022-07-06T01:14:44;13.30;99.90
53114;DHT22;39009;53.166;6.232;2022-07-06T01:17:10;13.30;99.90
53114;DHT22;39009;53.166;6.232;2022-07-06T01:19:36;13.40;99.90
53114;DHT22;39009;53.166;6.232;2022-07-06T01:22:01;13.30;99.90
53114;DHT22;39009;53.166;6.232;2022-07-06T01:24:27;13.30;99.90
53114;DHT22;39009;53.166;6.232;2022-07-06T01:26:53;13.30;99.90
53114;DHT22;39009;53.166;6.232;2022-07-06T01:29:18;13.30;99.90
53114;DHT22;39009;53.166;6.232;2022-07-06T01:31:46;13.40;99.90
53114;DHT22;39009;53.166;6.232;2022-07-06T01:34:12;13.40;99.90
53114;DHT22;39009;53.166;6.232;2022-07-06T01:36:38;13.40;99.90
53114;DHT22;39009;53.166;6.232;2022-07-06T01:39:04;13.50;99.90
53114;DHT22;39009;53.166;6.232;2022-07-06T01:41:29;13.50;99.90
53114;DHT22;39009;53.166;6.232;2022-07-06T01:43:55;13.40;99.90
53114;DHT22;39009;53.166;6.232;2022-07-06T01:46:20;13.50;99.90
53114;DHT22;39009;53.166;6.232;2022-07-06T01:48:46;13.50;99.90
53114;DHT22;39009;53.166;6.232;2022-07-06T01:51:12;13.50;99.90
53114;DHT22;39009;53.166;6.232;2022-07-06T01:53:37;13.50;99.90
53114;DHT22;39009;53.166;6.232;2022-07-06T01:56:03;13.50;99.90
53114;DHT22;39009;53.166;6.232;2022-07-06T01:58:29;13.50;99.90
53114;DHT22;39009;53.166;6.232;2022-07-06T02:00:54;13.50;99.90
53114;DHT22;39009;53.166;6.232;2022-07-06T02:03:20;13.50;99.90
53114;DHT22;39009;53.166;6.232;2022-07-06T02:05:45;13.60;99.90
53114;DHT22;39009;53.166;6.232;2022-07-06T02:08:11;13.50;99.90
53114;DHT22;39009;53.166;6.232;2022-07-06T02:10:36;13.60;99.90
53114;DHT22;39009;53.166;6.232;2022-07-06T02:13:02;13.60;99.90
53114;DHT22;39009;53.166;6.232;2022-07-06T02:15:27;13.60;99.90
53114;DHT22;39009;53.166;6.232;2022-07-06T02:17:53;13.60;99.90
53114;DHT22;39009;53.166;6.232;2022-07-06T02:20:18;13.60;99.90
53114;DHT22;39009;53.166;6.232;2022-07-06T02:22:44;13.60;99.90
53114;DHT22;39009;53.166;6.232;2022-07-06T02:25:10;13.60;99.90
53114;DHT22;39009;53.166;6.232;2022-07-06T02:27:35;13.60;99.90
53114;DHT22;39009;53.166;6.232;2022-07-06T02:30:01;13.60;99.90
53114;DHT22;39009;53.166;6.232;2022-07-06T02:32:29;13.60;99.90
53114;DHT22;39009;53.166;6.232;2022-07-06T02:35:01;13.50;99.90
53114;DHT22;39009;53.166;6.232;2022-07-06T02:37:29;13.50;99.90
53114;DHT22;39009;53.166;6.232;2022-07-06T02:39:54;13.60;99.90
53114;DHT22;39009;53.166;6.232;2022-07-06T02:42:20;13.50;99.90
53114;DHT22;39009;53.166;6.232;2022-07-06T02:44:45;13.50;99.90
53114;DHT22;39009;53.166;6.232;2022-07-06T02:47:11;13.40;99.90
53114;DHT22;39009;53.166;6.232;2022-07-06T02:49:36;13.60;99.90
53114;DHT22;39009;53.166;6.232;2022-07-06T02:52:08;13.40;99.90
53114;DHT22;39009;53.166;6.232;2022-07-06T02:54:34;13.30;99.90
53114;DHT22;39009;53.166;6.232;2022-07-06T02:56:59;13.30;99.90
53114;DHT22;39009;53.166;6.232;2022-07-06T02:59:28;13.30;99.90
53114;DHT22;39009;53.166;6.232;2022-07-06T03:01:56;13.20;99.90
53114;DHT22;39009;53.166;6.232;2022-07-06T03:04:21;13.20;99.90
53114;DHT22;39009;53.166;6.232;2022-07-06T03:06:47;13.10;99.90
53114;DHT22;39009;53.166;6.232;2022-07-06T03:09:13;13.10;99.90
53114;DHT22;39009;53.166;6.232;2022-07-06T03:11:38;13.00;99.90
53114;DHT22;39009;53.166;6.232;2022-07-06T03:14:07;13.00;99.90
53114;DHT22;39009;53.166;6.232;2022-07-06T03:16:32;12.90;99.90
53114;DHT22;39009;53.166;6.232;2022-07-06T03:18:58;12.80;99.90
53114;DHT22;39009;53.166;6.232;2022-07-06T03:21:24;12.80;99.90
53114;DHT22;39009;53.166;6.232;2022-07-06T03:23:50;12.70;99.90
53114;DHT22;39009;53.166;6.232;2022-07-06T03:26:15;12.70;99.90
53114;DHT22;39009;53.166;6.232;2022-07-06T03:28:41;12.70;99.90
53114;DHT22;39009;53.166;6.232;2022-07-06T03:31:06;12.70;99.90
53114;DHT22;39009;53.166;6.232;2022-07-06T03:33:32;12.70;99.90
53114;DHT22;39009;53.166;6.232;2022-07-06T03:35:57;12.60;99.90
53114;DHT22;39009;53.166;6.232;2022-07-06T03:38:26;12.60;99.90
53114;DHT22;39009;53.166;6.232;2022-07-06T03:40:51;12.50;99.90
53114;DHT22;39009;53.166;6.232;2022-07-06T03:43:17;12.50;99.90
53114;DHT22;39009;53.166;6.232;2022-07-06T03:45:42;12.50;99.90
53114;DHT22;39009;53.166;6.232;2022-07-06T03:48:08;12.50;99.90
53114;DHT22;39009;53.166;6.232;2022-07-06T03:50:34;12.40;99.90
53114;DHT22;39009;53.166;6.232;2022-07-06T03:53:00;12.50;99.90
53114;DHT22;39009;53.166;6.232;2022-07-06T03:55:25;12.50;99.90
53114;DHT22;39009;53.166;6.232;2022-07-06T03:57:51;12.50;99.90
53114;DHT22;39009;53.166;6.232;2022-07-06T04:00:16;12.50;99.90
53114;DHT22;39009;53.166;6.232;2022-07-06T04:02:42;12.50;99.90
53114;DHT22;39009;53.166;6.232;2022-07-06T04:05:08;12.60;99.90
53114;DHT22;39009;53.166;6.232;2022-07-06T04:07:33;12.60;99.90
53114;DHT22;39009;53.166;6.232;2022-07-06T04:09:59;12.60;99.90
53114;DHT22;39009;53.166;6.232;2022-07-06T04:12:24;12.60;99.90
53114;DHT22;39009;53.166;6.232;2022-07-06T04:14:50;12.60;99.90
53114;DHT22;39009;53.166;6.232;2022-07-06T04:17:15;12.50;99.90
53114;DHT22;39009;53.166;6.232;2022-07-06T04:20:00;12.50;99.90
53114;DHT22;39009;53.166;6.232;2022-07-06T04:22:26;12.40;99.90
53114;DHT22;39009;53.166;6.232;2022-07-06T04:24:52;12.40;99.90
53114;DHT22;39009;53.166;6.232;2022-07-06T04:27:17;12.50;99.90
53114;DHT22;39009;53.166;6.232;2022-07-06T04:29:43;12.40;99.90
53114;DHT22;39009;53.166;6.232;2022-07-06T04:32:08;12.40;99.90
53114;DHT22;39009;53.166;6.232;2022-07-06T04:34:34;12.40;99.90
53114;DHT22;39009;53.166;6.232;2022-07-06T04:36:59;12.40;99.90
53114;DHT22;39009;53.166;6.232;2022-07-06T04:39:25;12.60;99.90
53114;DHT22;39009;53.166;6.232;2022-07-06T04:41:56;12.60;99.90
53114;DHT22;39009;53.166;6.232;2022-07-06T04:44:21;12.70;99.90
53114;DHT22;39009;53.166;6.232;2022-07-06T04:46:47;12.70;99.90
53114;DHT22;39009;53.166;6.232;2022-07-06T04:49:12;12.70;99.90
53114;DHT22;39009;53.166;6.232;2022-07-06T04:51:38;12.80;99.90
53114;DHT22;39009;53.166;6.232;2022-07-06T04:54:04;12.90;99.90
53114;DHT22;39009;53.166;6.232;2022-07-06T04:56:30;13.00;99.90
53114;DHT22;39009;53.166;6.232;2022-07-06T04:58:56;13.00;99.90
53114;DHT22;39009;53.166;6.232;2022-07-06T05:01:22;13.10;99.90
53114;DHT22;39009;53.166;6.232;2022-07-06T05:03:47;13.00;99.90
53114;DHT22;39009;53.166;6.232;2022-07-06T05:06:13;13.00;99.90
53114;DHT22;39009;53.166;6.232;2022-07-06T05:08:38;13.10;99.90
53114;DHT22;39009;53.166;6.232;2022-07-06T05:11:04;13.10;99.90
53114;DHT22;39009;53.166;6.232;2022-07-06T05:13:29;13.00;99.90
53114;DHT22;39009;53.166;6.232;2022-07-06T05:15:55;13.10;99.90
53114;DHT22;39009;53.166;6.232;2022-07-06T05:18:20;13.10;99.90
53114;DHT22;39009;53.166;6.232;2022-07-06T05:20:46;13.10;99.90
53114;DHT22;39009;53.166;6.232;2022-07-06T05:23:12;13.10;99.90
53114;DHT22;39009;53.166;6.232;2022-07-06T05:25:38;13.20;99.90
53114;DHT22;39009;53.166;6.232;2022-07-06T05:28:03;13.30;99.90
53114;DHT22;39009;53.166;6.232;2022-07-06T05:30:32;13.30;99.90
53114;DHT22;39009;53.166;6.232;2022-07-06T05:32:57;13.60;99.90
53114;DHT22;39009;53.166;6.232;2022-07-06T05:35:23;13.60;99.90
53114;DHT22;39009;53.166;6.232;2022-07-06T05:37:48;13.80;99.90
53114;DHT22;39009;53.166;6.232;2022-07-06T05:40:14;13.80;99.90
53114;DHT22;39009;53.166;6.232;2022-07-06T05:42:40;14.00;99.90
53114;DHT22;39009;53.166;6.232;2022-07-06T05:45:05;14.20;99.90
53114;DHT22;39009;53.166;6.232;2022-07-06T05:47:31;14.30;99.90
53114;DHT22;39009;53.166;6.232;2022-07-06T05:50:16;14.40;99.90
53114;DHT22;39009;53.166;6.232;2022-07-06T05:52:43;14.60;99.90
53114;DHT22;39009;53.166;6.232;2022-07-06T05:55:10;14.70;99.90
53114;DHT22;39009;53.166;6.232;2022-07-06T05:57:37;14.90;99.90
53114;DHT22;39009;53.166;6.232;2022-07-06T06:00:03;15.00;99.90
53114;DHT22;39009;53.166;6.232;2022-07-06T06:02:36;15.10;99.90
53114;DHT22;39009;53.166;6.232;2022-07-06T06:05:01;15.20;99.90
53114;DHT22;39009;53.166;6.232;2022-07-06T06:07:27;15.40;99.90
53114;DHT22;39009;53.166;6.232;2022-07-06T06:09:53;15.30;99.90
53114;DHT22;39009;53.166;6.232;2022-07-06T06:12:18;15.40;99.90
53114;DHT22;39009;53.166;6.232;2022-07-06T06:14:44;15.50;99.90
53114;DHT22;39009;53.166;6.232;2022-07-06T06:17:09;15.50;99.90
53114;DHT22;39009;53.166;6.232;2022-07-06T06:19:35;15.60;99.90
53114;DHT22;39009;53.166;6.232;2022-07-06T06:22:02;15.80;99.90
53114;DHT22;39009;53.166;6.232;2022-07-06T06:24:27;16.10;99.90
53114;DHT22;39009;53.166;6.232;2022-07-06T06:26:53;16.40;99.90
53114;DHT22;39009;53.166;6.232;2022-07-06T06:29:19;16.60;99.90
53114;DHT22;39009;53.166;6.232;2022-07-06T06:31:44;16.60;99.90
53114;DHT22;39009;53.166;6.232;2022-07-06T06:34:10;17.00;99.90
53114;DHT22;39009;53.166;6.232;2022-07-06T06:36:35;17.20;99.90
53114;DHT22;39009;53.166;6.232;2022-07-06T06:39:01;17.60;99.90
53114;DHT22;39009;53.166;6.232;2022-07-06T06:41:27;17.90;99.90
53114;DHT22;39009;53.166;6.232;2022-07-06T06:43:53;18.20;99.90
53114;DHT22;39009;53.166;6.232;2022-07-06T06:46:18;18.50;99.90
53114;DHT22;39009;53.166;6.232;2022-07-06T06:48:47;18.90;99.90
53114;DHT22;39009;53.166;6.232;2022-07-06T06:51:12;19.20;99.90
53114;DHT22;39009;53.166;6.232;2022-07-06T06:53:38;19.60;99.90
53114;DHT22;39009;53.166;6.232;2022-07-06T06:56:03;19.70;99.90
53114;DHT22;39009;53.166;6.232;2022-07-06T06:58:29;20.00;99.90
53114;DHT22;39009;53.166;6.232;2022-07-06T07:00:55;20.10;99.90
53114;DHT22;39009;53.166;6.232;2022-07-06T07:03:20;20.60;99.90
53114;DHT22;39009;53.166;6.232;2022-07-06T07:05:46;20.80;99.90
53114;DHT22;39009;53.166;6.232;2022-07-06T07:08:13;21.00;99.90
53114;DHT22;39009;53.166;6.232;2022-07-06T07:10:39;21.10;99.90
53114;DHT22;39009;53.166;6.232;2022-07-06T07:13:04;21.20;99.90
53114;DHT22;39009;53.166;6.232;2022-07-06T07:15:30;21.10;99.90
53114;DHT22;39009;53.166;6.232;2022-07-06T07:17:55;20.70;99.90
53114;DHT22;39009;53.166;6.232;2022-07-06T07:20:21;20.50;99.90
53114;DHT22;39009;53.166;6.232;2022-07-06T07:22:46;20.60;99.90
53114;DHT22;39009;53.166;6.232;2022-07-06T07:25:12;20.90;99.90
53114;DHT22;39009;53.166;6.232;2022-07-06T07:27:38;21.10;99.90
53114;DHT22;39009;53.166;6.232;2022-07-06T07:30:04;21.40;99.90
53114;DHT22;39009;53.166;6.232;2022-07-06T07:32:30;21.60;99.90
53114;DHT22;39009;53.166;6.232;2022-07-06T07:34:55;21.70;99.90
53114;DHT22;39009;53.166;6.232;2022-07-06T07:37:21;21.50;99.90
53114;DHT22;39009;53.166;6.232;2022-07-06T07:39:46;21.30;99.90
53114;DHT22;39009;53.166;6.232;2022-07-06T07:42:12;21.10;99.90
53114;DHT22;39009;53.166;6.232;2022-07-06T07:44:41;21.00;99.90
53114;DHT22;39009;53.166;6.232;2022-07-06T07:47:06;21.10;99.90
53114;DHT22;39009;53.166;6.232;2022-07-06T07:49:32;20.90;99.90
53114;DHT22;39009;53.166;6.232;2022-07-06T07:51:57;20.90;99.90
53114;DHT22;39009;53.166;6.232;2022-07-06T07:54:23;20.70;99.90
53114;DHT22;39009;53.166;6.232;2022-07-06T07:56:48;20.60;99.90
53114;DHT22;39009;53.166;6.232;2022-07-06T07:59:14;20.40;99.90
53114;DHT22;39009;53.166;6.232;2022-07-06T08:01:40;20.10;99.90
53114;DHT22;39009;53.166;6.232;2022-07-06T08:04:05;19.90;99.90
53114;DHT22;39009;53.166;6.232;2022-07-06T08:06:31;19.80;99.90
53114;DHT22;39009;53.166;6.232;2022-07-06T08:08:56;19.60;99.90
53114;DHT22;39009;53.166;6.232;2022-07-06T08:11:22;19.60;99.90
53114;DHT22;39009;53.166;6.232;2022-07-06T08:13:51;19.80;99.90
53114;DHT22;39009;53.166;6.232;2022-07-06T08:16:16;20.00;99.90
53114;DHT22;39009;53.166;6.232;2022-07-06T08:18:42;20.40;99.90
53114;DHT22;39009;53.166;6.232;2022-07-06T08:21:07;20.60;99.90
53114;DHT22;39009;53.166;6.232;2022-07-06T08:23:33;20.60;99.90
53114;DHT22;39009;53.166;6.232;2022-07-06T08:26:01;20.50;99.90
53114;DHT22;39009;53.166;6.232;2022-07-06T08:28:26;20.60;99.90
53114;DHT22;39009;53.166;6.232;2022-07-06T08:30:53;20.80;99.90
53114;DHT22;39009;53.166;6.232;2022-07-06T08:33:19;21.10;99.90
53114;DHT22;39009;53.166;6.232;2022-07-06T08:35:45;21.00;99.90
53114;DHT22;39009;53.166;6.232;2022-07-06T08:38:11;21.00;99.90
53114;DHT22;39009;53.166;6.232;2022-07-06T08:40:36;21.00;99.90
53114;DHT22;39009;53.166;6.232;2022-07-06T08:43:03;20.90;99.90
53114;DHT22;39009;53.166;6.232;2022-07-06T08:45:29;20.80;99.90
53114;DHT22;39009;53.166;6.232;2022-07-06T08:47:55;20.60;99.90
53114;DHT22;39009;53.166;6.232;2022-07-06T08:50:22;20.50;99.90
53114;DHT22;39009;53.166;6.232;2022-07-06T08:52:48;20.80;99.90
53114;DHT22;39009;53.166;6.232;2022-07-06T08:55:15;20.90;99.90
53114;DHT22;39009;53.166;6.232;2022-07-06T08:57:40;21.20;99.90
53114;DHT22;39009;53.166;6.232;2022-07-06T09:00:07;21.50;99.90
53114;DHT22;39009;53.166;6.232;2022-07-06T09:02:33;21.70;99.90
53114;DHT22;39009;53.166;6.232;2022-07-06T09:04:59;22.00;99.90
53114;DHT22;39009;53.166;6.232;2022-07-06T09:07:27;22.00;99.90
53114;DHT22;39009;53.166;6.232;2022-07-06T09:09:54;22.00;99.90
53114;DHT22;39009;53.166;6.232;2022-07-06T09:12:20;21.80;99.90
53114;DHT22;39009;53.166;6.232;2022-07-06T09:14:45;21.60;99.90
53114;DHT22;39009;53.166;6.232;2022-07-06T09:17:11;21.70;99.90
53114;DHT22;39009;53.166;6.232;2022-07-06T09:19:37;21.70;99.90
53114;DHT22;39009;53.166;6.232;2022-07-06T09:22:02;21.90;99.90
53114;DHT22;39009;53.166;6.232;2022-07-06T09:24:28;22.40;99.90
53114;DHT22;39009;53.166;6.232;2022-07-06T09:26:54;22.50;99.90
53114;DHT22;39009;53.166;6.232;2022-07-06T09:29:26;22.50;99.90
53114;DHT22;39009;53.166;6.232;2022-07-06T09:31:58;22.50;99.90
53114;DHT22;39009;53.166;6.232;2022-07-06T09:34:24;22.40;99.60
53114;DHT22;39009;53.166;6.232;2022-07-06T09:36:50;22.00;99.40
53114;DHT22;39009;53.166;6.232;2022-07-06T09:41:42;21.60;99.90
53114;DHT22;39009;53.166;6.232;2022-07-06T09:44:09;21.40;99.90
53114;DHT22;39009;53.166;6.232;2022-07-06T09:46:39;21.80;99.90
53114;DHT22;39009;53.166;6.232;2022-07-06T09:49:06;22.10;99.90
53114;DHT22;39009;53.166;6.232;2022-07-06T09:51:31;22.70;99.90
53114;DHT22;39009;53.166;6.232;2022-07-06T09:53:58;23.40;99.90
53114;DHT22;39009;53.166;6.232;2022-07-06T09:56:36;23.50;98.60
53114;DHT22;39009;53.166;6.232;2022-07-06T09:59:09;23.30;98.40
53114;DHT22;39009;53.166;6.232;2022-07-06T10:01:36;23.20;98.20
53114;DHT22;39009;53.166;6.232;2022-07-06T10:04:02;22.90;99.30
53114;DHT22;39009;53.166;6.232;2022-07-06T10:06:27;22.80;99.90
53114;DHT22;39009;53.166;6.232;2022-07-06T10:08:53;22.90;99.50
53114;DHT22;39009;53.166;6.232;2022-07-06T10:11:20;23.40;99.90
53114;DHT22;39009;53.166;6.232;2022-07-06T10:13:46;23.80;99.30
53114;DHT22;39009;53.166;6.232;2022-07-06T10:16:14;24.30;98.20
53114;DHT22;39009;53.166;6.232;2022-07-06T10:18:40;24.50;98.00
53114;DHT22;39009;53.166;6.232;2022-07-06T10:21:06;24.90;97.70
53114;DHT22;39009;53.166;6.232;2022-07-06T10:23:33;25.20;95.20
53114;DHT22;39009;53.166;6.232;2022-07-06T10:26:00;25.20;96.70
53114;DHT22;39009;53.166;6.232;2022-07-06T10:28:26;25.60;95.30
53114;DHT22;39009;53.166;6.232;2022-07-06T10:30:51;25.60;95.00
53114;DHT22;39009;53.166;6.232;2022-07-06T10:33:17;25.60;93.80
53114;DHT22;39009;53.166;6.232;2022-07-06T10:35:43;25.30;93.60
53114;DHT22;39009;53.166;6.232;2022-07-06T10:38:10;25.00;93.50
53114;DHT22;39009;53.166;6.232;2022-07-06T10:40:36;25.20;94.60
53114;DHT22;39009;53.166;6.232;2022-07-06T10:43:21;25.50;95.70
53114;DHT22;39009;53.166;6.232;2022-07-06T10:50:38;25.90;93.30
53114;DHT22;39009;53.166;6.232;2022-07-06T10:53:11;26.00;92.70
53114;DHT22;39009;53.166;6.232;2022-07-06T10:55:38;26.00;92.50
53114;DHT22;39009;53.166;6.232;2022-07-06T10:58:04;26.40;92.20
53114;DHT22;39009;53.166;6.232;2022-07-06T11:00:49;26.90;92.10
53114;DHT22;39009;53.166;6.232;2022-07-06T11:06:02;27.00;91.30
53114;DHT22;39009;53.166;6.232;2022-07-06T11:11:16;27.60;91.90
53114;DHT22;39009;53.166;6.232;2022-07-06T11:13:50;27.90;89.20
53114;DHT22;39009;53.166;6.232;2022-07-06T11:16:16;28.10;89.20
53114;DHT22;39009;53.166;6.232;2022-07-06T11:18:46;28.00;86.10
53114;DHT22;39009;53.166;6.232;2022-07-06T11:21:16;27.70;85.70
53114;DHT22;39009;53.166;6.232;2022-07-06T11:23:42;27.60;86.70
53114;DHT22;39009;53.166;6.232;2022-07-06T11:26:09;27.80;89.90
53114;DHT22;39009;53.166;6.232;2022-07-06T11:28:35;27.90;86.20
53114;DHT22;39009;53.166;6.232;2022-07-06T11:31:01;28.20;88.20
53114;DHT22;39009;53.166;6.232;2022-07-06T11:33:28;28.40;90.00
53114;DHT22;39009;53.166;6.232;2022-07-06T11:36:10;28.20;84.10
53114;DHT22;39009;53.166;6.232;2022-07-06T11:38:36;28.20;85.40
53114;DHT22;39009;53.166;6.232;2022-07-06T11:41:01;28.10;85.60
53114;DHT22;39009;53.166;6.232;2022-07-06T11:43:27;27.80;85.20
53114;DHT22;39009;53.166;6.232;2022-07-06T11:48:21;27.10;86.60
53114;DHT22;39009;53.166;6.232;2022-07-06T11:51:00;27.30;87.60
53114;DHT22;39009;53.166;6.232;2022-07-06T11:53:26;27.30;83.60
53114;DHT22;39009;53.166;6.232;2022-07-06T11:55:52;27.40;82.10
53114;DHT22;39009;53.166;6.232;2022-07-06T11:58:18;27.40;84.80
53114;DHT22;39009;53.166;6.232;2022-07-06T12:01:02;27.50;85.20
53114;DHT22;39009;53.166;6.232;2022-07-06T12:03:28;27.50;84.30
53114;DHT22;39009;53.166;6.232;2022-07-06T12:05:53;27.20;82.70
53114;DHT22;39009;53.166;6.232;2022-07-06T12:08:19;27.00;86.70
53114;DHT22;39009;53.166;6.232;2022-07-06T12:10:44;26.70;84.70
53114;DHT22;39009;53.166;6.232;2022-07-06T12:13:10;26.50;84.50
53114;DHT22;39009;53.166;6.232;2022-07-06T12:15:35;26.40;83.90
53114;DHT22;39009;53.166;6.232;2022-07-06T12:18:01;26.40;84.00
53114;DHT22;39009;53.166;6.232;2022-07-06T12:20:27;26.10;82.90
53114;DHT22;39009;53.166;6.232;2022-07-06T12:23:02;25.80;87.90
53114;DHT22;39009;53.166;6.232;2022-07-06T12:25:30;25.80;86.60
53114;DHT22;39009;53.166;6.232;2022-07-06T12:27:56;26.00;87.50
53114;DHT22;39009;53.166;6.232;2022-07-06T12:30:24;26.20;86.10
53114;DHT22;39009;53.166;6.232;2022-07-06T12:33:14;26.40;82.80
53114;DHT22;39009;53.166;6.232;2022-07-06T12:35:41;26.20;83.20
53114;DHT22;39009;53.166;6.232;2022-07-06T12:38:07;26.20;83.90
53114;DHT22;39009;53.166;6.232;2022-07-06T12:40:32;26.30;83.10
53114;DHT22;39009;53.166;6.232;2022-07-06T12:42:58;26.10;81.40
53114;DHT22;39009;53.166;6.232;2022-07-06T12:45:29;26.10;82.60
53114;DHT22;39009;53.166;6.232;2022-07-06T12:47:57;25.80;81.10
53114;DHT22;39009;53.166;6.232;2022-07-06T12:50:30;25.40;80.50
53114;DHT22;39009;53.166;6.232;2022-07-06T12:52:56;25.00;81.40
53114;DHT22;39009;53.166;6.232;2022-07-06T12:55:25;24.60;82.20
53114;DHT22;39009;53.166;6.232;2022-07-06T12:57:50;24.40;84.30
53114;DHT22;39009;53.166;6.232;2022-07-06T13:00:17;24.30;85.90
53114;DHT22;39009;53.166;6.232;2022-07-06T13:02:45;24.20;84.80
53114;DHT22;39009;53.166;6.232;2022-07-06T13:05:12;24.20;86.10
53114;DHT22;39009;53.166;6.232;2022-07-06T13:07:44;24.10;85.00
53114;DHT22;39009;53.166;6.232;2022-07-06T13:10:11;23.90;84.70
53114;DHT22;39009;53.166;6.232;2022-07-06T13:12:37;23.90;85.10
53114;DHT22;39009;53.166;6.232;2022-07-06T13:15:03;23.80;86.70
53114;DHT22;39009;53.166;6.232;2022-07-06T13:17:28;23.80;87.50
53114;DHT22;39009;53.166;6.232;2022-07-06T13:19:54;23.80;88.00
53114;DHT22;39009;53.166;6.232;2022-07-06T13:22:20;23.90;87.10
53114;DHT22;39009;53.166;6.232;2022-07-06T13:24:46;23.90;88.40
53114;DHT22;39009;53.166;6.232;2022-07-06T13:27:11;23.90;88.10
53114;DHT22;39009;53.166;6.232;2022-07-06T13:29:37;23.80;85.90
53114;DHT22;39009;53.166;6.232;2022-07-06T13:32:03;23.70;87.00
53114;DHT22;39009;53.166;6.232;2022-07-06T13:34:29;23.50;85.50
53114;DHT22;39009;53.166;6.232;2022-07-06T13:36:54;23.30;86.10
53114;DHT22;39009;53.166;6.232;2022-07-06T13:39:20;23.10;84.40
53114;DHT22;39009;53.166;6.232;2022-07-06T13:41:46;22.90;85.90
53114;DHT22;39009;53.166;6.232;2022-07-06T13:44:11;22.70;86.00
53114;DHT22;39009;53.166;6.232;2022-07-06T13:46:37;22.50;86.50
53114;DHT22;39009;53.166;6.232;2022-07-06T13:49:03;22.40;86.90
53114;DHT22;39009;53.166;6.232;2022-07-06T13:51:29;22.20;87.20
53114;DHT22;39009;53.166;6.232;2022-07-06T13:53:56;22.00;88.70
53114;DHT22;39009;53.166;6.232;2022-07-06T13:56:22;21.90;89.00
53114;DHT22;39009;53.166;6.232;2022-07-06T13:58:48;21.70;89.30
53114;DHT22;39009;53.166;6.232;2022-07-06T14:01:13;21.60;90.30
53114;DHT22;39009;53.166;6.232;2022-07-06T14:03:39;21.60;90.20
53114;DHT22;39009;53.166;6.232;2022-07-06T14:06:07;21.50;90.50
53114;DHT22;39009;53.166;6.232;2022-07-06T14:08:35;21.40;90.80
53114;DHT22;39009;53.166;6.232;2022-07-06T14:11:03;21.30;90.50
53114;DHT22;39009;53.166;6.232;2022-07-06T14:13:29;21.30;90.90
53114;DHT22;39009;53.166;6.232;2022-07-06T14:15:55;21.20;90.90
53114;DHT22;39009;53.166;6.232;2022-07-06T14:18:21;21.10;90.80
53114;DHT22;39009;53.166;6.232;2022-07-06T14:20:47;20.90;91.20
53114;DHT22;39009;53.166;6.232;2022-07-06T14:23:13;20.80;91.70
53114;DHT22;39009;53.166;6.232;2022-07-06T14:25:40;20.70;91.70
53114;DHT22;39009;53.166;6.232;2022-07-06T14:28:05;20.70;92.20
53114;DHT22;39009;53.166;6.232;2022-07-06T14:30:32;20.70;92.70
53114;DHT22;39009;53.166;6.232;2022-07-06T14:32:57;20.60;93.50
53114;DHT22;39009;53.166;6.232;2022-07-06T14:35:23;20.40;94.50
53114;DHT22;39009;53.166;6.232;2022-07-06T14:37:50;20.30;94.80
53114;DHT22;39009;53.166;6.232;2022-07-06T14:40:15;20.10;94.90
53114;DHT22;39009;53.166;6.232;2022-07-06T14:42:41;19.90;95.10
53114;DHT22;39009;53.166;6.232;2022-07-06T14:45:09;19.80;94.90
53114;DHT22;39009;53.166;6.232;2022-07-06T14:47:35;19.70;94.80
53114;DHT22;39009;53.166;6.232;2022-07-06T14:50:02;19.70;94.80
53114;DHT22;39009;53.166;6.232;2022-07-06T14:52:28;19.70;95.00
53114;DHT22;39009;53.166;6.232;2022-07-06T14:54:53;19.70;94.70
53114;DHT22;39009;53.166;6.232;2022-07-06T14:57:19;19.80;95.00
53114;DHT22;39009;53.166;6.232;2022-07-06T14:59:45;19.80;94.90
53114;DHT22;39009;53.166;6.232;2022-07-06T15:02:10;19.70;94.90
53114;DHT22;39009;53.166;6.232;2022-07-06T15:04:36;19.70;95.40
53114;DHT22;39009;53.166;6.232;2022-07-06T15:07:01;19.60;95.40
53114;DHT22;39009;53.166;6.232;2022-07-06T15:09:27;19.60;97.50
53114;DHT22;39009;53.166;6.232;2022-07-06T15:11:55;19.60;97.80
53114;DHT22;39009;53.166;6.232;2022-07-06T15:14:21;19.50;98.60
53114;DHT22;39009;53.166;6.232;2022-07-06T15:16:46;19.60;98.20
53114;DHT22;39009;53.166;6.232;2022-07-06T15:19:12;19.50;98.70
53114;DHT22;39009;53.166;6.232;2022-07-06T15:21:37;19.30;99.70
53114;DHT22;39009;53.166;6.232;2022-07-06T15:24:09;19.30;99.90
53114;DHT22;39009;53.166;6.232;2022-07-06T15:26:36;19.10;99.90
53114;DHT22;39009;53.166;6.232;2022-07-06T15:29:02;19.10;99.90
53114;DHT22;39009;53.166;6.232;2022-07-06T15:31:28;18.90;99.90
53114;DHT22;39009;53.166;6.232;2022-07-06T15:33:53;18.70;99.90
53114;DHT22;39009;53.166;6.232;2022-07-06T15:36:19;18.60;99.90
53114;DHT22;39009;53.166;6.232;2022-07-06T15:38:44;18.50;99.90
53114;DHT22;39009;53.166;6.232;2022-07-06T15:41:10;18.50;99.90